createdAt,value
2018-03-24T00:00:11.031Z,5.23
2018-03-24T00:02:38.532Z,5.47
2018-03-24T00:05:05.999Z,5.38
2018-03-24T00:07:33.482Z,5.44
2018-03-24T00:10:00.934Z,5.41
2018-03-24T00:12:28.436Z,5.40
2018-03-24T00:14:55.910Z,5.39
2018-03-24T00:17:23.390Z,5.41
2018-03-24T00:19:50.850Z,5.38
2018-03-24T00:22:18.318Z,5.38
2018-03-24T00:24:45.777Z,5.33
2018-03-24T00:27:13.273Z,5.28
2018-03-24T00:29:40.775Z,5.42
2018-03-24T00:32:08.325Z,5.40
2018-03-24T00:34:35.956Z,5.39
2018-03-24T00:37:04.341Z,5.31
2018-03-24T00:39:31.817Z,5.29
2018-03-24T00:41:59.274Z,5.21
2018-03-24T00:44:26.753Z,5.27
2018-03-24T00:46:54.292Z,5.29
2018-03-24T00:49:21.761Z,5.41
2018-03-24T00:51:49.214Z,5.48
2018-03-24T00:54:16.686Z,5.52
2018-03-24T00:56:45.116Z,5.58
2018-03-24T00:59:12.580Z,5.45
2018-03-24T01:01:40.032Z,5.35
2018-03-24T01:04:07.509Z,5.28
2018-03-24T01:06:34.965Z,5.25
2018-03-24T01:09:02.438Z,5.18
2018-03-24T01:11:29.888Z,5.19
2018-03-24T01:13:57.370Z,5.37
2018-03-24T01:16:24.904Z,5.39
2018-03-24T01:18:52.365Z,5.27
2018-03-24T01:21:20.808Z,5.12
2018-03-24T01:23:48.268Z,5.26
2018-03-24T01:26:15.720Z,5.21
2018-03-24T01:28:43.187Z,5.38
2018-03-24T01:31:10.781Z,5.42
2018-03-24T01:33:38.244Z,5.30
2018-03-24T01:36:06.678Z,5.40
2018-03-24T01:38:34.148Z,5.26
2018-03-24T01:41:01.608Z,5.24
2018-03-24T01:43:29.088Z,5.20
2018-03-24T01:45:56.537Z,5.18
2018-03-24T01:48:24.014Z,5.22
2018-03-24T01:50:52.369Z,5.23
2018-03-24T01:53:19.834Z,5.27
2018-03-24T01:55:47.280Z,5.31
2018-03-24T01:58:14.760Z,5.36
2018-03-24T02:00:43.185Z,5.28
2018-03-24T02:03:10.677Z,5.35
2018-03-24T02:05:38.129Z,5.36
2018-03-24T02:08:05.596Z,5.41
2018-03-24T02:10:33.062Z,5.23
2018-03-24T02:13:00.536Z,5.07
2018-03-24T02:15:27.993Z,5.15
2018-03-24T02:17:55.517Z,5.30
2018-03-24T02:20:24.110Z,5.33
2018-03-24T02:22:51.553Z,5.38
2018-03-24T02:25:19.420Z,5.46
2018-03-24T02:27:47.893Z,5.17
2018-03-24T02:30:15.348Z,5.26
2018-03-24T02:32:42.832Z,5.28
2018-03-24T02:35:10.286Z,5.43
2018-03-24T02:37:38.745Z,5.13
2018-03-24T02:40:06.200Z,5.15
2018-03-24T02:42:33.682Z,5.19
2018-03-24T02:45:01.142Z,5.22
2018-03-24T02:47:28.627Z,5.23
2018-03-24T02:49:56.144Z,5.16
2018-03-24T02:52:23.618Z,5.11
2018-03-24T02:54:51.062Z,5.11
2018-03-24T02:57:18.612Z,5.22
2018-03-24T02:59:46.073Z,5.22
2018-03-24T03:02:13.541Z,5.06
2018-03-24T03:04:40.992Z,5.14
2018-03-24T03:07:08.462Z,4.93
2018-03-24T03:09:35.907Z,5.01
2018-03-24T03:12:03.361Z,5.08
2018-03-24T03:14:30.833Z,5.07
2018-03-24T03:16:58.286Z,5.18
2018-03-24T03:19:25.752Z,5.17
2018-03-24T03:21:53.264Z,5.23
2018-03-24T03:24:20.722Z,5.10
2018-03-24T03:26:48.175Z,5.10
2018-03-24T03:29:15.640Z,4.98
2018-03-24T03:34:42.082Z,4.97
2018-03-24T03:37:11.491Z,5.02
2018-03-24T03:39:38.996Z,5.08
2018-03-24T03:42:06.426Z,5.09
2018-03-24T03:44:34.870Z,4.94
2018-03-24T03:47:03.253Z,4.90
2018-03-24T03:49:30.726Z,4.93
2018-03-24T03:51:58.199Z,4.99
2018-03-24T03:54:25.654Z,5.12
2018-03-24T03:56:53.125Z,5.12
2018-03-24T03:59:20.591Z,5.22
2018-03-24T04:01:48.133Z,5.11
2018-03-24T04:04:15.589Z,5.03
2018-03-24T04:06:44.057Z,4.88
2018-03-24T04:09:11.502Z,4.93
2018-03-24T04:11:38.954Z,5.00
2018-03-24T04:14:08.383Z,4.95
2018-03-24T04:16:35.945Z,5.02
2018-03-24T04:19:03.405Z,5.01
2018-03-24T04:21:30.865Z,4.97
2018-03-24T04:23:58.324Z,5.03
2018-03-24T04:26:25.773Z,5.01
2018-03-24T04:28:53.249Z,5.22
2018-03-24T04:31:22.735Z,5.09
2018-03-24T04:33:50.201Z,5.00
2018-03-24T04:36:18.600Z,4.97
2018-03-24T04:38:48.034Z,4.93
2018-03-24T04:41:15.490Z,4.92
2018-03-24T04:43:44.902Z,4.90
2018-03-24T04:46:12.377Z,4.74
2018-03-24T04:48:39.850Z,4.89
2018-03-24T04:51:07.309Z,4.62
2018-03-24T04:53:34.786Z,4.73
2018-03-24T04:56:02.242Z,4.72
2018-03-24T04:58:29.718Z,4.82
2018-03-24T05:00:57.157Z,4.76
2018-03-24T05:03:24.626Z,4.92
2018-03-24T05:05:52.082Z,4.81
2018-03-24T05:08:19.594Z,4.76
2018-03-24T05:10:47.049Z,4.77
2018-03-24T05:13:14.525Z,4.72
2018-03-24T05:15:42.065Z,4.77
2018-03-24T05:18:09.531Z,4.89
2018-03-24T05:20:36.989Z,4.83
2018-03-24T05:23:05.458Z,4.82
2018-03-24T05:25:32.917Z,4.86
2018-03-24T05:28:00.372Z,4.91
2018-03-24T05:30:27.829Z,5.06
2018-03-24T05:32:55.302Z,5.05
2018-03-24T05:35:22.758Z,4.96
2018-03-24T05:37:51.206Z,5.08
2018-03-24T05:40:18.681Z,4.99
2018-03-24T05:42:48.077Z,4.99
2018-03-24T05:45:15.546Z,5.04
2018-03-24T05:47:43.014Z,5.06
2018-03-24T05:50:10.471Z,5.08
2018-03-24T05:52:37.937Z,4.96
2018-03-24T05:55:05.389Z,4.91
2018-03-24T05:57:32.862Z,5.10
2018-03-24T06:00:00.320Z,5.18
2018-03-24T06:02:27.800Z,5.04
2018-03-24T06:04:56.191Z,5.19
2018-03-24T06:07:24.579Z,5.17
2018-03-24T06:09:52.038Z,5.21
2018-03-24T06:12:19.497Z,5.35
2018-03-24T06:14:46.956Z,5.38
2018-03-24T06:17:14.420Z,5.37
2018-03-24T06:19:41.868Z,5.53
2018-03-24T06:22:09.356Z,5.38
2018-03-24T06:24:36.797Z,5.45
2018-03-24T06:27:04.262Z,5.42
2018-03-24T06:29:31.721Z,5.44
2018-03-24T06:32:12.522Z,5.46
2018-03-24T06:34:39.970Z,5.43
2018-03-24T06:37:13.126Z,5.50
2018-03-24T06:39:40.573Z,5.58
2018-03-24T06:42:08.038Z,5.56
2018-03-24T06:44:35.486Z,5.61
2018-03-24T06:47:03.056Z,5.71
2018-03-24T06:49:30.609Z,5.66
2018-03-24T06:51:58.270Z,5.83
2018-03-24T06:54:25.839Z,5.86
2018-03-24T06:56:53.399Z,5.71
2018-03-24T06:59:20.849Z,5.56
2018-03-24T07:01:48.414Z,5.62
2018-03-24T07:04:15.866Z,5.78
2018-03-24T07:06:43.346Z,5.86
2018-03-24T07:09:10.870Z,6.06
2018-03-24T07:11:38.328Z,6.13
2018-03-24T07:14:05.792Z,5.92
2018-03-24T07:16:33.262Z,6.06
2018-03-24T07:19:00.725Z,6.07
2018-03-24T07:21:28.269Z,6.49
2018-03-24T07:23:55.729Z,6.21
2018-03-24T07:26:24.194Z,6.21
2018-03-24T07:28:52.661Z,6.29
2018-03-24T07:31:22.246Z,6.41
2018-03-24T07:33:49.886Z,6.60
2018-03-24T07:36:18.313Z,6.62
2018-03-24T07:38:50.056Z,6.16
2018-03-24T07:41:18.459Z,6.45
2018-03-24T07:43:45.906Z,6.30
2018-03-24T07:46:13.381Z,6.43
2018-03-24T07:48:41.868Z,6.12
2018-03-24T07:51:09.341Z,6.24
2018-03-24T07:53:37.775Z,6.35
2018-03-24T07:56:05.255Z,6.49
2018-03-24T07:58:32.710Z,6.53
2018-03-24T08:01:00.188Z,6.78
2018-03-24T08:03:27.649Z,6.95
2018-03-24T08:05:56.126Z,7.17
2018-03-24T08:08:23.601Z,7.05
2018-03-24T08:10:51.136Z,7.16
2018-03-24T08:13:18.684Z,7.38
2018-03-24T08:15:46.159Z,7.45
2018-03-24T08:18:13.702Z,7.41
2018-03-24T08:20:41.197Z,7.23
2018-03-24T08:23:09.604Z,7.36
2018-03-24T08:25:38.015Z,7.65
2018-03-24T08:28:05.490Z,7.32
2018-03-24T08:30:33.934Z,6.96
2018-03-24T08:33:01.401Z,7.27
2018-03-24T08:35:28.925Z,7.32
2018-03-24T08:37:56.393Z,7.41
2018-03-24T08:40:23.871Z,7.71
2018-03-24T08:42:51.329Z,7.79
2018-03-24T08:45:19.713Z,7.88
2018-03-24T08:47:47.164Z,8.01
2018-03-24T08:50:14.629Z,8.20
2018-03-24T08:52:42.097Z,7.93
2018-03-24T08:55:09.554Z,7.65
2018-03-24T08:57:37.056Z,8.07
2018-03-24T09:00:04.525Z,8.23
2018-03-24T09:02:31.981Z,8.27
2018-03-24T09:04:59.461Z,8.07
2018-03-24T09:07:32.024Z,8.09
2018-03-24T09:09:59.621Z,7.75
2018-03-24T09:12:27.081Z,7.73
2018-03-24T09:14:54.558Z,8.09
2018-03-24T09:17:22.082Z,7.99
2018-03-24T09:19:49.565Z,8.27
2018-03-24T09:22:17.123Z,8.27
2018-03-24T09:24:44.563Z,8.38
2018-03-24T09:27:12.066Z,7.89
2018-03-24T09:29:39.529Z,7.47
2018-03-24T09:32:07.050Z,8.07
2018-03-24T09:34:34.509Z,8.30
2018-03-24T09:37:01.993Z,8.05
2018-03-24T09:39:29.495Z,7.83
2018-03-24T09:41:56.961Z,8.27
2018-03-24T09:44:24.440Z,8.56
2018-03-24T09:46:51.936Z,8.38
2018-03-24T09:49:19.394Z,8.54
2018-03-24T09:51:46.865Z,8.82
2018-03-24T09:54:15.329Z,8.90
2018-03-24T09:56:42.797Z,8.86
2018-03-24T09:59:10.254Z,8.68
2018-03-24T10:01:37.757Z,8.47
2018-03-24T10:04:05.214Z,8.76
2018-03-24T10:06:32.686Z,8.99
2018-03-24T10:09:00.201Z,9.24
2018-03-24T10:11:27.717Z,9.25
2018-03-24T10:13:55.181Z,9.24
2018-03-24T10:16:22.665Z,9.06
2018-03-24T10:18:50.113Z,8.66
2018-03-24T10:24:18.220Z,9.21
2018-03-24T10:26:46.690Z,9.72
2018-03-24T10:29:14.162Z,9.74
2018-03-24T10:31:41.614Z,9.79
2018-03-24T10:34:10.113Z,10.16
2018-03-24T10:36:37.662Z,10.24
2018-03-24T10:39:05.135Z,10.12
2018-03-24T10:41:32.620Z,10.41
2018-03-24T10:44:00.098Z,10.11
2018-03-24T10:46:29.508Z,10.76
2018-03-24T10:48:56.985Z,10.98
2018-03-24T10:51:24.441Z,11.15
2018-03-24T10:53:51.889Z,11.28
2018-03-24T10:56:20.277Z,11.26
2018-03-24T10:58:48.748Z,11.08
2018-03-24T11:01:21.662Z,10.80
2018-03-24T11:03:49.130Z,10.86
2018-03-24T11:06:16.598Z,10.75
2018-03-24T11:08:45.026Z,10.72
2018-03-24T11:11:12.502Z,11.11
2018-03-24T11:13:40.006Z,10.92
2018-03-24T11:16:07.488Z,11.13
2018-03-24T11:18:34.944Z,11.20
2018-03-24T11:21:03.338Z,11.26
2018-03-24T11:23:30.799Z,11.42
2018-03-24T11:25:58.273Z,11.14
2018-03-24T11:28:25.743Z,11.17
2018-03-24T11:30:53.248Z,10.60
2018-03-24T11:33:21.650Z,10.95
2018-03-24T11:35:53.401Z,10.59
2018-03-24T11:38:20.897Z,10.48
2018-03-24T11:40:49.349Z,10.69
2018-03-24T11:43:16.914Z,11.03
2018-03-24T11:45:44.414Z,11.17
2018-03-24T11:48:11.878Z,10.88
2018-03-24T11:50:39.359Z,10.26
2018-03-24T11:53:07.739Z,10.93
2018-03-24T11:55:35.222Z,10.78
2018-03-24T11:58:02.685Z,10.92
2018-03-24T12:00:30.156Z,11.13
2018-03-24T12:02:57.617Z,10.63
2018-03-24T12:05:25.104Z,10.79
2018-03-24T12:07:52.601Z,10.74
2018-03-24T12:10:20.077Z,10.76
2018-03-24T12:12:47.539Z,10.70
2018-03-24T12:15:18.470Z,10.59
2018-03-24T12:17:45.942Z,10.73
2018-03-24T12:20:15.419Z,10.68
2018-03-24T12:22:42.882Z,10.72
2018-03-24T12:25:10.352Z,10.45
2018-03-24T12:27:38.780Z,10.48
2018-03-24T12:30:06.261Z,10.82
2018-03-24T12:32:33.737Z,10.73
2018-03-24T12:35:01.289Z,11.11
2018-03-24T12:37:28.845Z,10.90
2018-03-24T12:39:56.328Z,10.85
2018-03-24T12:42:24.758Z,10.93
2018-03-24T12:44:52.236Z,10.87
2018-03-24T12:47:19.712Z,11.29
2018-03-24T12:49:47.300Z,11.11
2018-03-24T12:52:14.756Z,11.34
2018-03-24T12:54:42.272Z,11.37
2018-03-24T12:57:09.733Z,10.93
2018-03-24T12:59:37.201Z,11.11
2018-03-24T13:02:04.659Z,10.83
2018-03-24T13:04:32.209Z,10.92
2018-03-24T13:06:59.669Z,11.24
2018-03-24T13:09:27.165Z,11.60
2018-03-24T13:11:54.633Z,11.79
2018-03-24T13:14:22.139Z,11.63
2018-03-24T13:16:49.601Z,11.95
2018-03-24T13:19:17.091Z,11.45
2018-03-24T13:21:44.580Z,11.84
2018-03-24T13:24:12.075Z,11.61
2018-03-24T13:26:39.541Z,11.00
2018-03-24T13:29:07.013Z,11.06
2018-03-24T13:31:34.465Z,11.28
2018-03-24T13:34:01.950Z,10.93
2018-03-24T13:36:29.416Z,11.08
2018-03-24T13:38:56.890Z,11.50
2018-03-24T13:41:24.500Z,11.47
2018-03-24T13:43:51.938Z,11.48
2018-03-24T13:46:19.441Z,11.27
2018-03-24T13:48:46.965Z,11.05
2018-03-24T13:51:14.455Z,10.68
2018-03-24T13:53:42.871Z,11.12
2018-03-24T13:56:10.334Z,10.85
2018-03-24T13:58:37.802Z,11.07
2018-03-24T14:01:05.279Z,11.18
2018-03-24T14:03:33.734Z,11.07
2018-03-24T14:06:02.219Z,11.04
2018-03-24T14:08:29.810Z,11.12
2018-03-24T14:10:57.265Z,11.24
2018-03-24T14:13:24.785Z,10.72
2018-03-24T14:15:52.256Z,10.48
2018-03-24T14:18:19.725Z,10.52
2018-03-24T14:20:47.263Z,10.20
2018-03-24T14:23:14.746Z,10.59
2018-03-24T14:25:44.114Z,11.09
2018-03-24T14:28:11.679Z,11.11
2018-03-24T14:30:39.159Z,10.97
2018-03-24T14:33:06.643Z,10.94
2018-03-24T14:35:35.013Z,10.48
2018-03-24T14:38:02.490Z,10.65
2018-03-24T14:40:30.881Z,10.69
2018-03-24T14:42:58.359Z,10.33
2018-03-24T14:45:25.846Z,10.63
2018-03-24T14:47:53.330Z,10.85
2018-03-24T14:50:20.788Z,10.48
2018-03-24T14:52:48.265Z,10.62
2018-03-24T14:55:15.722Z,10.26
2018-03-24T14:57:43.191Z,10.30
2018-03-24T15:00:10.678Z,10.34
2018-03-24T15:02:38.158Z,10.43
2018-03-24T15:05:07.643Z,10.58
2018-03-24T15:07:35.123Z,10.61
2018-03-24T15:10:06.036Z,10.36
2018-03-24T15:12:33.581Z,10.13
2018-03-24T15:15:01.016Z,10.15
2018-03-24T15:17:28.614Z,10.18
2018-03-24T15:19:56.082Z,10.47
2018-03-24T15:22:23.567Z,10.43
2018-03-24T15:24:51.978Z,10.19
2018-03-24T15:27:19.478Z,10.29
2018-03-24T15:29:58.921Z,10.11
2018-03-24T15:32:39.201Z,10.23
2018-03-24T15:35:18.487Z,10.36
2018-03-24T15:37:46.929Z,10.46
2018-03-24T15:40:15.515Z,10.32
2018-03-24T15:42:45.060Z,10.44
2018-03-24T15:45:12.605Z,10.45
2018-03-24T15:47:40.069Z,10.49
2018-03-24T15:50:08.603Z,10.54
2018-03-24T15:52:36.057Z,10.37
2018-03-24T15:55:03.808Z,10.06
2018-03-24T15:57:31.285Z,10.07
2018-03-24T15:59:58.733Z,10.18
2018-03-24T16:02:26.226Z,10.10
2018-03-24T16:04:53.683Z,9.97
2018-03-24T16:07:21.154Z,9.90
2018-03-24T16:09:48.632Z,9.97
2018-03-24T16:12:16.122Z,10.05
2018-03-24T16:14:43.601Z,10.07
2018-03-24T16:17:11.057Z,10.08
2018-03-24T16:19:38.513Z,9.89
2018-03-24T16:22:07.931Z,9.84
2018-03-24T16:24:36.374Z,9.91
2018-03-24T16:27:03.839Z,9.86
2018-03-24T16:29:31.294Z,9.78
2018-03-24T16:31:58.892Z,9.67
2018-03-24T16:34:26.353Z,9.75
2018-03-24T16:36:53.897Z,9.57
2018-03-24T16:39:21.396Z,9.65
2018-03-24T16:41:48.837Z,9.75
2018-03-24T16:44:16.418Z,9.49
2018-03-24T16:46:43.921Z,9.45
2018-03-24T16:49:11.389Z,9.54
2018-03-24T16:51:38.869Z,9.63
2018-03-24T16:54:06.355Z,9.54
2018-03-24T16:56:33.842Z,9.43
2018-03-24T16:59:02.200Z,9.52
2018-03-24T17:01:29.669Z,9.39
2018-03-24T18:25:54.204Z,8.66
2018-03-24T18:28:21.773Z,8.74
2018-03-24T18:30:49.405Z,8.84
2018-03-24T18:33:16.876Z,9.05
2018-03-24T18:35:45.331Z,8.99
2018-03-24T18:38:14.087Z,8.98
2018-03-24T18:40:41.544Z,9.02
2018-03-24T18:43:10.965Z,9.05
2018-03-24T18:45:38.421Z,9.07
2018-03-24T18:48:06.847Z,8.98
2018-03-24T18:50:34.301Z,8.95
2018-03-24T18:53:01.761Z,8.97
2018-03-24T18:55:29.241Z,9.20
2018-03-24T18:57:56.822Z,9.14
2018-03-24T19:00:24.271Z,9.01
2018-03-24T19:02:51.748Z,8.99
2018-03-24T19:05:19.232Z,9.13
2018-03-24T19:07:46.756Z,8.91
2018-03-24T19:10:14.218Z,8.79
2018-03-24T19:12:41.785Z,8.83
2018-03-24T19:15:09.318Z,8.90
2018-03-24T19:17:36.848Z,9.19
2018-03-24T19:20:04.337Z,9.20
2018-03-24T19:22:31.873Z,9.16
2018-03-24T19:24:59.322Z,9.26
2018-03-24T19:27:27.717Z,9.31
2018-03-24T19:29:56.198Z,9.19
2018-03-24T19:32:25.687Z,9.15
2018-03-24T19:34:53.153Z,9.14
2018-03-24T19:37:20.637Z,8.93
2018-03-24T19:39:48.097Z,8.88
2018-03-24T19:42:15.565Z,8.85
2018-03-24T19:44:43.057Z,8.91
2018-03-24T19:47:10.535Z,8.94
2018-03-24T19:49:38.964Z,8.84
2018-03-24T19:52:07.431Z,8.77
2018-03-24T19:54:34.982Z,8.74
2018-03-24T19:57:02.458Z,8.63
2018-03-24T19:59:29.991Z,8.61
2018-03-24T20:01:57.510Z,8.63
2018-03-24T20:04:24.992Z,8.56
2018-03-24T20:06:52.508Z,8.44
2018-03-24T20:09:20.027Z,8.38
2018-03-24T20:11:47.517Z,8.62
2018-03-24T20:14:20.702Z,8.61
2018-03-24T20:16:48.201Z,8.47
2018-03-24T20:19:18.987Z,8.49
2018-03-24T20:21:46.526Z,8.50
2018-03-24T20:24:13.947Z,8.55
2018-03-24T20:26:41.418Z,8.57
2018-03-24T20:29:08.915Z,8.64
2018-03-24T20:31:36.481Z,8.59
2018-03-24T20:34:04.616Z,8.57
2018-03-24T20:36:33.060Z,8.47
2018-03-24T20:39:00.512Z,8.38
2018-03-24T20:41:28.939Z,8.40
2018-03-24T20:43:56.416Z,8.43
2018-03-24T20:46:23.971Z,8.47
2018-03-24T20:48:51.457Z,8.53
2018-03-24T20:51:20.957Z,8.55
2018-03-24T20:53:48.434Z,8.53
2018-03-24T20:56:15.938Z,8.52
2018-03-24T20:58:43.397Z,8.62
2018-03-24T21:01:10.909Z,8.74
2018-03-24T21:03:38.463Z,8.61
2018-03-24T21:06:05.938Z,8.58
2018-03-24T21:08:33.482Z,8.46
2018-03-24T21:11:00.961Z,8.60
2018-03-24T21:13:30.462Z,8.57
2018-03-24T21:15:57.924Z,8.48
2018-03-24T21:18:25.456Z,8.52
2018-03-24T21:20:53.008Z,8.45
2018-03-24T21:23:20.458Z,8.49
2018-03-24T21:25:48.953Z,8.48
2018-03-24T21:28:16.414Z,8.49
2018-03-24T21:30:43.891Z,8.49
2018-03-24T21:33:11.348Z,8.48
2018-03-24T21:35:39.794Z,8.34
2018-03-24T21:38:07.249Z,8.34
2018-03-24T21:40:34.689Z,8.20
2018-03-24T21:43:02.154Z,8.17
2018-03-24T21:45:29.659Z,8.19
2018-03-24T21:47:57.087Z,8.26
2018-03-24T21:50:24.550Z,8.36
2018-03-24T21:52:52.012Z,8.44
2018-03-24T21:55:19.565Z,8.48
2018-03-24T21:57:48.047Z,8.60
2018-03-24T22:00:15.513Z,8.51
2018-03-24T22:02:42.965Z,8.43
2018-03-24T22:05:10.417Z,8.43
2018-03-24T22:07:38.051Z,8.36
2018-03-24T22:10:05.525Z,8.28
2018-03-24T22:12:33.001Z,8.29
2018-03-24T22:15:00.522Z,8.32
2018-03-24T22:17:28.047Z,8.31
2018-03-24T22:19:55.545Z,8.75
2018-03-24T22:22:23.066Z,8.54
2018-03-24T22:24:50.513Z,8.44
2018-03-24T22:27:17.972Z,8.43
2018-03-24T22:29:45.437Z,8.38
2018-03-24T22:32:12.916Z,8.43
2018-03-24T22:34:40.366Z,8.50
2018-03-24T22:37:07.827Z,8.47
2018-03-24T22:39:35.293Z,8.41
2018-03-24T22:42:02.755Z,8.51
2018-03-24T22:44:30.223Z,8.40
2018-03-24T22:46:57.699Z,8.43
2018-03-24T22:49:25.163Z,8.37
2018-03-24T22:51:53.647Z,8.25
2018-03-24T22:54:21.106Z,8.18
2018-03-24T22:56:48.577Z,8.23
2018-03-24T22:59:16.035Z,8.15
2018-03-24T23:01:43.513Z,8.20
2018-03-24T23:04:10.957Z,8.21
2018-03-24T23:06:38.422Z,8.22
2018-03-24T23:09:05.876Z,8.20
2018-03-24T23:11:33.363Z,8.23
2018-03-24T23:14:00.810Z,8.31
2018-03-24T23:16:29.268Z,8.29
2018-03-24T23:18:56.751Z,8.37
2018-03-24T23:21:24.266Z,8.22
2018-03-24T23:23:51.723Z,8.04
2018-03-24T23:26:19.230Z,7.99
2018-03-24T23:28:46.716Z,8.34
2018-03-24T23:31:14.196Z,8.15
2018-03-24T23:33:41.665Z,8.07
2018-03-24T23:36:10.057Z,8.04
2018-03-24T23:38:37.514Z,8.01
2018-03-24T23:41:05.016Z,8.05
2018-03-24T23:43:32.462Z,7.95
2018-03-24T23:46:00.010Z,7.97
2018-03-24T23:48:27.465Z,7.82
2018-03-24T23:50:54.951Z,7.80
2018-03-24T23:53:22.412Z,7.82
2018-03-24T23:55:49.917Z,7.79
2018-03-24T23:58:17.364Z,8.08
